Time;durP1;ratioP1;P1;durP2;ratioP2;P2;SDS_P1;SDS_P2;PMS_P1;PMS_P2;Temp;Humidity;BMP_temperature;BMP_pressure;BME280_temperature;BME280_humidity;BME280_pressure;Samples;Min_cycle;Max_cycle;Signal;HPM_P1;HPM_P2
2022/10/07 00:02:16;;;;;;;4.88;1.45;;;;;;;8.48;90.43;102249.72;5997635;28;20166;-67
2022/10/07 00:05:11;;;;;;;6.33;1.40;;;;;;;8.54;90.07;102235.25;5998272;28;20411;-66
2022/10/07 00:08:07;;;;;;;5.28;1.15;;;;;;;8.33;90.06;102222.44;5999009;28;20616;-66
2022/10/07 00:11:07;;;;;;;6.53;1.60;;;;;;;8.62;89.90;102246.22;5997802;28;20109;-66
2022/10/07 00:14:06;;;;;;;7.25;1.88;;;;;;;8.54;89.75;102236.13;5998260;28;20081;-66
2022/10/07 00:17:01;;;;;;;8.18;1.55;;;;;;;8.45;89.97;102249.06;5998505;28;20038;-66
2022/10/07 00:19:56;;;;;;;5.50;1.33;;;;;;;8.20;89.91;102234.69;5998423;28;20074;-67
2022/10/07 00:22:52;;;;;;;3.38;1.38;;;;;;;8.20;90.33;102249.69;5998135;28;20269;-67
2022/10/07 00:25:47;;;;;;;3.45;1.33;;;;;;;8.18;90.69;102241.00;5998508;28;20118;-66
2022/10/07 00:28:43;;;;;;;3.87;1.77;;;;;;;8.11;90.42;102251.09;5998497;28;20067;-66
2022/10/07 00:31:40;;;;;;;6.53;2.20;;;;;;;8.10;90.59;102238.81;5997845;28;20030;-66
2022/10/07 00:34:35;;;;;;;5.80;1.70;;;;;;;7.99;90.50;102230.69;5997797;28;20108;-66
2022/10/07 00:37:31;;;;;;;4.87;1.87;;;;;;;7.94;91.02;102214.25;5998584;28;20035;-66
2022/10/07 00:40:27;;;;;;;7.80;1.70;;;;;;;7.99;91.21;102228.03;5997656;28;20070;-66
2022/10/07 00:43:28;;;;;;;10.13;2.10;;;;;;;7.89;92.57;102194.34;5998866;28;20027;-67
2022/10/07 00:46:33;;;;;;;9.20;2.08;;;;;;;7.69;92.30;102199.03;6007049;28;20031;-66
2022/10/07 00:49:30;;;;;;;5.75;2.25;;;;;;;7.72;92.26;102192.72;6002583;28;20027;-66
2022/10/07 00:52:29;;;;;;;6.97;1.65;;;;;;;8.29;94.47;102206.84;6001492;28;20538;-67
2022/10/07 00:55:26;;;;;;;10.68;2.10;;;;;;;8.18;93.43;102186.34;6000965;28;20455;-66
2022/10/07 00:58:22;;;;;;;5.88;2.30;;;;;;;7.91;93.51;102205.69;6017494;28;20037;-67
2022/10/07 01:01:19;;;;;;;11.35;3.05;;;;;;;8.25;94.41;102182.41;6001286;28;20034;-66
2022/10/07 01:04:14;;;;;;;7.53;2.15;;;;;;;8.22;94.32;102179.94;6000850;28;20042;-67
2022/10/07 01:07:10;;;;;;;9.17;2.03;;;;;;;8.31;94.15;102197.06;6001901;28;20111;-67
2022/10/07 01:10:06;;;;;;;8.05;1.92;;;;;;;8.23;92.89;102184.31;6001356;28;20037;-66
2022/10/07 01:13:07;;;;;;;7.80;1.92;;;;;;;8.38;93.57;102191.28;6002332;28;20558;-66
2022/10/07 01:16:32;;;;;;;6.10;2.20;;;;;;;8.09;92.12;102184.28;6000231;28;20068;-66
2022/10/07 01:20:15;;;;;;;8.25;2.20;;;;;;;8.02;92.98;102167.09;6000346;28;20398;-66
2022/10/07 01:23:22;;;;;;;12.88;2.55;;;;;;;7.80;93.94;102164.06;6001456;28;20062;-66
2022/10/07 01:26:26;;;;;;;8.73;2.20;;;;;;;7.73;94.38;102166.25;6001682;28;20097;-66
2022/10/07 01:29:31;;;;;;;9.60;2.60;;;;;;;7.70;93.50;102147.09;6001899;28;20528;-66
2022/10/07 01:32:39;;;;;;;13.85;2.50;;;;;;;7.16;93.14;102151.19;6000832;28;20034;-66
2022/10/07 01:35:35;;;;;;;7.65;2.38;;;;;;;7.29;95.67;102154.81;5999934;28;20069;-66
2022/10/07 01:38:32;;;;;;;5.18;1.70;;;;;;;7.45;96.52;102138.91;6000615;28;20475;-66
2022/10/07 01:41:29;;;;;;;12.93;2.47;;;;;;;7.01;94.38;102139.72;5999483;28;20035;-66
2022/10/07 01:44:27;;;;;;;15.50;2.33;;;;;;;6.88;95.16;102146.66;6007215;28;20045;-66
2022/10/07 01:47:24;;;;;;;11.52;2.55;;;;;;;7.25;96.53;102131.34;6003642;28;20629;-66
2022/10/07 01:50:23;;;;;;;11.48;2.67;;;;;;;7.32;96.35;102127.41;5999362;28;20030;-66
2022/10/07 01:53:33;;;;;;;9.82;2.17;;;;;;;7.87;96.02;102123.16;6001079;28;20457;-66
2022/10/07 01:56:44;;;;;;;7.30;1.70;;;;;;;7.63;95.29;102122.84;5989941;28;20505;-66
2022/10/07 02:00:04;;;;;;;8.35;1.92;;;;;;;7.60;95.23;102124.81;5999672;28;20043;-66
2022/10/07 02:03:08;;;;;;;3.92;1.67;;;;;;;7.45;94.69;102128.38;6001055;28;20043;-66
2022/10/07 02:06:19;;;;;;;5.63;1.40;;;;;;;7.25;94.63;102104.97;6000824;28;20046;-66
2022/10/07 02:09:24;;;;;;;4.95;1.63;;;;;;;7.07;94.42;102112.16;6000513;28;20485;-66
2022/10/07 02:12:36;;;;;;;6.57;1.80;;;;;;;7.01;95.09;102116.00;5998840;28;20085;-66
2022/10/07 02:15:38;;;;;;;8.25;1.92;;;;;;;6.78;94.61;102095.38;5999443;28;20039;-66
2022/10/07 02:18:34;;;;;;;12.52;2.10;;;;;;;6.63;95.47;102109.44;6000388;28;20526;-65
2022/10/07 02:21:33;;;;;;;6.72;1.95;;;;;;;6.67;96.60;102095.16;6003181;28;20089;-67
2022/10/07 02:24:32;;;;;;;9.30;2.40;;;;;;;6.95;97.25;102108.47;5991252;28;20489;-67
2022/10/07 02:27:31;;;;;;;5.53;2.00;;;;;;;7.01;96.56;102107.25;5999703;28;20121;-67
2022/10/07 02:30:27;;;;;;;6.25;2.25;;;;;;;6.89;96.79;102087.72;5999907;28;20038;-66
2022/10/07 02:33:26;;;;;;;4.43;1.67;;;;;;;7.15;97.14;102092.31;5999930;28;20081;-67
2022/10/07 02:36:31;;;;;;;4.93;1.80;;;;;;;7.16;94.62;102091.38;6002345;28;20046;-67
2022/10/07 02:39:27;;;;;;;8.18;2.15;;;;;;;7.62;96.04;102092.13;5998665;28;20093;-67
2022/10/07 02:42:38;;;;;;;10.55;2.42;;;;;;;7.72;96.12;102089.75;5999557;28;20055;-67
2022/10/07 02:45:54;;;;;;;9.93;2.17;;;;;;;7.59;95.53;102068.53;6001289;28;20070;-66
2022/10/07 02:49:01;;;;;;;8.02;2.60;;;;;;;7.02;94.57;102082.56;5999022;28;20085;-66
2022/10/07 02:52:01;;;;;;;7.82;2.40;;;;;;;6.71;94.50;102070.31;5997955;28;20034;-67
2022/10/07 02:55:06;;;;;;;11.50;3.03;;;;;;;6.65;96.13;102085.63;5998773;28;20035;-66
2022/10/07 02:58:04;;;;;;;6.88;2.63;;;;;;;6.75;97.12;102085.00;5997811;28;20039;-66
2022/10/07 03:01:01;;;;;;;11.52;3.03;;;;;;;6.72;97.01;102077.28;5997687;28;20034;-66
2022/10/07 03:03:56;;;;;;;12.85;3.22;;;;;;;6.75;97.46;102071.84;5998193;28;20027;-66
2022/10/07 03:06:52;;;;;;;10.27;3.10;;;;;;;6.76;97.00;102081.44;5998411;28;20034;-66
2022/10/07 03:09:47;;;;;;;16.90;3.75;;;;;;;6.67;97.22;102067.94;5999655;28;20113;-67
2022/10/07 03:12:44;;;;;;;10.73;3.10;;;;;;;6.71;97.15;102062.41;5999057;28;20397;-66
2022/10/07 03:15:40;;;;;;;13.45;3.50;;;;;;;6.70;97.58;102060.72;5999615;28;20328;-66
2022/10/07 03:18:36;;;;;;;17.98;3.85;;;;;;;6.70;97.60;102060.72;5999251;28;20026;-66
2022/10/07 03:21:33;;;;;;;20.70;4.13;;;;;;;6.77;97.09;102064.69;5998554;28;20038;-66
2022/10/07 03:24:30;;;;;;;17.75;3.78;;;;;;;6.71;96.92;102058.94;5999183;28;20054;-67
2022/10/07 03:27:25;;;;;;;17.23;3.88;;;;;;;6.79;97.61;102065.47;5998790;28;20608;-66
2022/10/07 03:30:21;;;;;;;16.53;4.27;;;;;;;6.79;97.14;102064.59;5998952;28;20030;-66
2022/10/07 03:33:17;;;;;;;12.25;3.63;;;;;;;6.76;97.47;102056.88;5999068;28;20117;-66
2022/10/07 03:36:12;;;;;;;14.23;3.33;;;;;;;6.83;97.45;102056.41;5999132;28;20039;-66
2022/10/07 03:39:09;;;;;;;12.23;2.67;;;;;;;6.76;96.89;102046.34;5998946;28;20667;-66
2022/10/07 03:42:05;;;;;;;14.30;3.07;;;;;;;6.81;96.97;102039.84;5998009;28;20050;-66
2022/10/07 03:45:00;;;;;;;9.23;2.80;;;;;;;6.85;96.60;102049.25;5998451;28;20081;-66
2022/10/07 03:47:56;;;;;;;9.13;3.07;;;;;;;6.76;96.14;102048.97;5998791;28;20064;-66
2022/10/07 03:50:55;;;;;;;15.27;3.60;;;;;;;6.80;96.39;102051.31;5998443;28;20281;-66
2022/10/07 03:53:53;;;;;;;13.82;2.92;;;;;;;6.66;96.52;102022.28;5998960;28;20105;-66
2022/10/07 03:56:48;;;;;;;13.52;3.33;;;;;;;6.62;96.38;102026.03;5998611;28;20035;-66
2022/10/07 03:59:43;;;;;;;12.73;2.90;;;;;;;6.68;96.90;102030.09;5998883;28;20034;-66
2022/10/07 04:02:39;;;;;;;9.37;2.90;;;;;;;6.65;96.55;102022.38;5997840;28;20062;-66
2022/10/07 04:05:35;;;;;;;8.37;2.70;;;;;;;6.63;96.91;102027.75;5998736;28;20385;-66
2022/10/07 04:08:32;;;;;;;14.25;2.75;;;;;;;6.67;96.77;102023.13;5998163;28;20438;-66
2022/10/07 04:11:27;;;;;;;13.75;3.00;;;;;;;6.66;96.29;102030.19;5997895;28;20038;-66
2022/10/07 04:14:22;;;;;;;8.05;2.60;;;;;;;6.51;96.42;102017.91;5998300;28;20039;-66
2022/10/07 04:17:18;;;;;;;11.80;2.57;;;;;;;6.51;96.59;102023.16;5998421;28;20450;-66
2022/10/07 04:20:15;;;;;;;12.65;2.75;;;;;;;6.47;97.03;102021.63;6002473;28;20027;-66
2022/10/07 04:23:10;;;;;;;6.97;2.45;;;;;;;6.45;97.30;102020.88;6002787;28;20035;-66
2022/10/07 04:26:08;;;;;;;7.03;2.33;;;;;;;6.46;97.54;102014.69;6012664;28;20030;-66
2022/10/07 04:29:03;;;;;;;8.73;3.00;;;;;;;6.40;97.44;102015.88;6025286;28;20066;-66
2022/10/07 04:31:58;;;;;;;7.57;2.33;;;;;;;6.26;97.69;102001.78;6002278;28;20594;-65
2022/10/07 04:34:54;;;;;;;7.13;2.00;;;;;;;6.36;97.93;102013.53;6003087;28;20038;-65
2022/10/07 04:37:50;;;;;;;8.30;2.53;;;;;;;6.37;98.18;102002.88;6008542;28;20089;-66
2022/10/07 04:40:48;;;;;;;6.47;2.40;;;;;;;6.40;97.91;102010.63;6024243;28;20034;-65
2022/10/07 04:43:44;;;;;;;5.68;2.33;;;;;;;6.49;98.28;102018.00;6018595;28;20035;-66
2022/10/07 04:46:39;;;;;;;10.40;2.00;;;;;;;6.57;98.05;102017.56;6008557;28;20118;-68
2022/10/07 04:49:35;;;;;;;4.55;1.88;;;;;;;6.66;97.68;102017.00;6002942;28;20031;-65
2022/10/07 04:52:30;;;;;;;5.50;1.73;;;;;;;6.66;97.82;101990.66;6020407;28;20121;-68
2022/10/07 04:55:27;;;;;;;8.77;1.92;;;;;;;6.81;97.39;102005.59;6002261;28;20306;-67
2022/10/07 04:58:22;;;;;;;8.73;1.90;;;;;;;6.78;96.62;101989.09;6002418;28;20405;-66
2022/10/07 05:01:17;;;;;;;5.73;1.70;;;;;;;6.80;96.59;101990.69;6001423;28;20031;-66
2022/10/07 05:04:12;;;;;;;5.53;1.80;;;;;;;6.94;95.86;101990.72;6001740;28;20329;-65
2022/10/07 05:07:09;;;;;;;7.47;1.53;;;;;;;7.04;95.51;101983.97;6002164;28;20783;-65
2022/10/07 05:10:06;;;;;;;11.75;1.90;;;;;;;7.16;94.56;101985.00;6001855;28;20034;-69
2022/10/07 05:13:02;;;;;;;5.82;1.67;;;;;;;7.26;93.82;101995.84;6001511;28;20120;-67
2022/10/07 05:16:00;;;;;;;4.22;1.42;;;;;;;7.35;93.59;101990.88;6001754;28;20466;-66
2022/10/07 05:18:56;;;;;;;7.45;1.58;;;;;;;7.38;92.98;101984.56;6001398;28;20035;-68
2022/10/07 05:21:51;;;;;;;5.93;1.25;;;;;;;7.37;92.34;101970.50;6005151;28;20053;-68
2022/10/07 05:24:47;;;;;;;8.97;1.63;;;;;;;7.53;92.15;101978.31;6001641;28;20034;-65
2022/10/07 05:27:43;;;;;;;2.75;1.33;;;;;;;7.50;91.78;101984.63;6001579;28;20109;-66
2022/10/07 05:30:39;;;;;;;5.50;1.43;;;;;;;7.53;91.42;101978.31;6000449;28;20031;-67
2022/10/07 05:33:35;;;;;;;7.95;1.45;;;;;;;7.66;91.43;101980.09;6001430;28;20538;-66
2022/10/07 05:36:30;;;;;;;8.40;2.10;;;;;;;7.67;90.29;101975.66;6001244;28;20035;-67
2022/10/07 05:39:26;;;;;;;9.27;1.60;;;;;;;7.81;89.97;101975.66;6001469;28;20409;-66
2022/10/07 05:42:21;;;;;;;3.83;1.20;;;;;;;7.76;89.81;101969.81;6000869;28;20038;-66
2022/10/07 05:45:17;;;;;;;7.13;2.03;;;;;;;7.81;89.68;101975.66;6001075;28;20646;-67
2022/10/07 05:48:14;;;;;;;5.97;1.70;;;;;;;7.84;88.92;101961.41;6024522;28;20041;-67
2022/10/07 05:51:09;;;;;;;4.50;1.58;;;;;;;7.78;89.21;101971.41;6004594;28;20457;-67
2022/10/07 05:54:04;;;;;;;8.37;1.60;;;;;;;7.75;89.43;101957.53;6001342;28;20034;-66
2022/10/07 05:56:59;;;;;;;4.77;1.40;;;;;;;7.71;89.24;101961.34;6001298;28;20325;-66
2022/10/07 05:59:57;;;;;;;8.33;1.50;;;;;;;7.82;89.28;101966.78;6000959;28;20137;-66
2022/10/07 06:02:52;;;;;;;8.85;1.60;;;;;;;7.88;88.73;101969.03;6000546;28;20705;-66
2022/10/07 06:05:49;;;;;;;7.23;2.13;;;;;;;7.83;89.00;101962.38;6000366;28;20038;-65
2022/10/07 06:08:45;;;;;;;7.55;1.35;;;;;;;7.84;89.05;101962.25;6000757;28;20037;-66
2022/10/07 06:14:54;;;;;;;8.20;1.10;;;;;;;7.98;88.45;101964.88;6000784;28;20030;-67
2022/10/07 06:17:49;;;;;;;9.67;1.50;;;;;;;8.11;88.16;101960.47;6000706;28;20031;-67
2022/10/07 06:20:53;;;;;;;10.00;1.60;;;;;;;8.05;87.99;101945.03;6000091;28;20486;-66
2022/10/07 06:23:50;;;;;;;7.82;1.50;;;;;;;8.05;87.41;101938.88;6000312;28;20382;-66
2022/10/07 06:26:47;;;;;;;5.82;1.77;;;;;;;8.28;87.38;101962.91;5999955;28;20043;-66
2022/10/07 06:29:42;;;;;;;7.10;1.38;;;;;;;8.57;86.19;101944.25;6000469;28;20382;-66
2022/10/07 06:32:38;;;;;;;8.18;1.50;;;;;;;8.80;84.76;101962.06;5999068;28;20042;-66
2022/10/07 06:35:33;;;;;;;6.65;1.70;;;;;;;8.91;83.92;101951.63;6000391;28;20035;-66
2022/10/07 06:38:29;;;;;;;5.00;1.30;;;;;;;9.09;83.40;101970.66;5999882;28;20050;-66
2022/10/07 06:41:24;;;;;;;10.32;1.70;;;;;;;9.18;82.84;101959.44;5998542;28;20404;-66
2022/10/07 06:44:20;;;;;;;5.57;1.50;;;;;;;9.24;82.32;101959.03;6000145;28;20549;-66
2022/10/07 06:47:15;;;;;;;15.45;1.58;;;;;;;9.51;81.51;101968.50;6002253;28;20050;-66
2022/10/07 06:50:10;;;;;;;11.03;2.47;;;;;;;9.68;80.82;101969.97;6022860;28;20088;-67
2022/10/07 06:53:06;;;;;;;6.63;1.40;;;;;;;9.73;79.64;101959.06;6023187;28;20048;-66
2022/10/07 06:56:03;;;;;;;6.65;1.60;;;;;;;9.89;78.86;101957.00;6002734;28;20328;-67
2022/10/07 06:58:58;;;;;;;7.97;1.67;;;;;;;9.94;78.73;101960.16;5999333;28;20455;-66
2022/10/07 07:01:53;;;;;;;4.72;1.20;;;;;;;10.05;78.23;101958.44;5998563;28;20086;-67
2022/10/07 07:04:49;;;;;;;7.25;1.20;;;;;;;10.17;78.38;101951.38;5998857;28;20061;-67
2022/10/07 07:07:44;;;;;;;4.03;1.43;;;;;;;10.35;77.95;101950.03;5999676;28;20038;-67
2022/10/07 07:10:41;;;;;;;5.67;1.30;;;;;;;10.50;76.75;101942.72;5998318;28;20082;-67
2022/10/07 07:13:36;;;;;;;4.50;1.10;;;;;;;10.57;76.35;101941.31;5999129;28;20540;-66
2022/10/07 07:16:32;;;;;;;5.23;1.27;;;;;;;10.71;76.33;101947.25;5998860;28;20022;-67
2022/10/07 07:19:27;;;;;;;4.47;1.23;;;;;;;10.87;75.06;101957.53;5998958;28;20073;-67
2022/10/07 07:22:22;;;;;;;4.70;1.17;;;;;;;10.84;74.77;101946.34;5998397;28;20485;-66
2022/10/07 07:25:18;;;;;;;3.23;1.03;;;;;;;11.06;74.37;101957.00;5998533;28;20072;-66
2022/10/07 07:28:14;;;;;;;10.88;1.85;;;;;;;11.10;74.16;101931.88;5998974;28;20031;-67
2022/10/07 07:31:12;;;;;;;3.35;1.00;;;;;;;11.14;74.37;101949.28;5998717;28;20031;-67
2022/10/07 07:34:12;;;;;;;5.03;1.33;;;;;;;11.17;73.72;101927.81;5999433;28;20039;-66
2022/10/07 07:37:08;;;;;;;6.35;1.85;;;;;;;11.51;72.73;101947.22;5999072;28;20038;-66
2022/10/07 07:40:04;;;;;;;10.73;1.55;;;;;;;11.36;72.92;101930.69;5998695;28;20137;-67
2022/10/07 07:42:59;;;;;;;6.13;1.50;;;;;;;11.43;73.41;101934.56;5998836;28;20437;-67
2022/10/07 07:45:57;;;;;;;5.67;1.60;;;;;;;11.49;73.22;101928.78;6003473;28;20140;-67
2022/10/07 07:48:53;;;;;;;2.97;1.20;;;;;;;11.70;72.92;101942.16;6022515;28;20026;-67
2022/10/07 07:51:49;;;;;;;3.35;1.02;;;;;;;11.85;72.00;101930.28;6021520;28;20045;-66
2022/10/07 07:54:46;;;;;;;6.80;1.50;;;;;;;11.98;71.61;101915.06;6027466;28;20386;-67
2022/10/07 07:57:41;;;;;;;5.22;1.10;;;;;;;12.31;70.81;101922.06;6026948;28;20045;-67
2022/10/07 08:00:36;;;;;;;4.03;1.20;;;;;;;12.30;70.67;101925.69;6008929;28;20039;-67
2022/10/07 08:03:33;;;;;;;4.10;1.70;;;;;;;12.48;70.39;101926.81;6003635;28;20446;-67
2022/10/07 08:06:30;;;;;;;5.28;1.50;;;;;;;12.59;69.62;101924.09;6003438;28;20031;-67
2022/10/07 08:09:26;;;;;;;7.55;1.10;;;;;;;12.78;69.82;101910.91;6003732;28;20034;-67
2022/10/07 08:12:22;;;;;;;8.80;1.50;;;;;;;13.07;68.96;101919.94;6003022;28;20386;-67
2022/10/07 08:15:17;;;;;;;7.00;1.08;;;;;;;13.23;68.30;101902.63;6003036;28;20049;-67
2022/10/07 08:18:13;;;;;;;6.97;1.10;;;;;;;13.04;68.78;101909.50;6003791;28;20035;-67
2022/10/07 08:21:09;;;;;;;5.07;1.20;;;;;;;13.35;67.51;101899.72;6002524;28;20488;-67
2022/10/07 08:24:07;;;;;;;7.68;1.65;;;;;;;13.51;67.01;101916.06;6010911;28;20748;-66
2022/10/07 08:27:02;;;;;;;5.32;1.00;;;;;;;13.41;66.96;101914.34;6003187;28;20045;-67
2022/10/07 08:29:57;;;;;;;2.27;0.90;;;;;;;13.42;66.62;101897.38;6002867;28;20463;-67
2022/10/07 08:32:53;;;;;;;7.67;1.27;;;;;;;13.33;67.30;101890.19;6002208;28;20670;-67
2022/10/07 08:35:49;;;;;;;5.25;0.90;;;;;;;13.55;66.55;101895.31;6003046;28;20035;-67
2022/10/07 08:38:45;;;;;;;8.75;1.58;;;;;;;13.87;66.98;101895.94;6003244;28;20041;-67
2022/10/07 08:41:52;;;;;;;5.25;1.38;;;;;;;14.18;64.74;101894.84;6002617;28;20031;-67
2022/10/07 08:44:47;;;;;;;;;;;;;;;14.81;64.80;101889.91;6003609;28;20085;-67
2022/10/07 08:47:44;;;;;;;5.90;1.27;;;;;;;14.82;63.05;101883.53;6035235;28;19909;-67
2022/10/07 08:50:39;;;;;;;5.07;1.20;;;;;;;15.01;62.38;101880.81;6001771;28;20504;-68
2022/10/07 08:53:36;;;;;;;4.75;1.40;;;;;;;14.82;63.74;101857.69;6002699;28;20034;-67
2022/10/07 08:56:32;;;;;;;5.05;1.40;;;;;;;15.12;61.97;101859.25;6002832;28;20589;-67
2022/10/07 08:59:30;;;;;;;8.00;1.50;;;;;;;15.09;63.51;101880.09;6002698;28;20031;-66
2022/10/07 09:02:30;;;;;;;6.05;1.05;;;;;;;15.51;62.05;101867.97;6000700;28;20030;-67
2022/10/07 09:05:31;;;;;;;11.25;1.90;;;;;;;15.56;60.16;101865.69;5999930;28;20458;-67
2022/10/07 09:08:34;;;;;;;6.50;1.10;;;;;;;15.43;60.54;101858.00;6017266;28;20027;-67
2022/10/07 09:11:32;;;;;;;2.97;0.90;;;;;;;15.44;59.83;101854.31;6000394;28;20122;-67
2022/10/07 09:14:36;;;;;;;3.22;1.20;;;;;;;15.45;61.34;101856.00;6002284;28;20452;-67
2022/10/07 09:17:35;;;;;;;5.53;1.10;;;;;;;15.61;61.24;101844.69;6000708;28;20026;-67
2022/10/07 09:20:35;;;;;;;5.43;1.20;;;;;;;15.67;60.86;101853.94;5999876;28;20114;-67
2022/10/07 09:23:32;;;;;;;3.72;1.13;;;;;;;15.55;60.75;101852.44;6000008;28;20047;-67
2022/10/07 09:26:30;;;;;;;7.07;1.38;;;;;;;15.35;61.52;101839.19;6002204;28;20046;-67
2022/10/07 09:29:28;;;;;;;5.55;1.33;;;;;;;15.53;62.36;101841.91;6002254;28;20039;-66
2022/10/07 09:32:23;;;;;;;4.38;1.45;;;;;;;15.75;61.68;101835.28;6000938;28;20773;-66
2022/10/07 09:35:24;;;;;;;5.53;1.30;;;;;;;15.66;63.08;101822.81;6002106;28;20050;-67
2022/10/07 09:38:36;;;;;;;3.35;0.82;;;;;;;16.28;60.37;101835.28;6001272;28;20041;-67
2022/10/07 09:41:34;;;;;;;5.22;1.00;;;;;;;16.35;59.40;101836.31;6001103;28;20093;-67
2022/10/07 09:44:30;;;;;;;5.15;1.00;;;;;;;16.65;58.75;101831.41;6000071;28;20046;-67
2022/10/07 09:47:29;;;;;;;5.43;1.10;;;;;;;16.22;57.45;101823.34;6004424;28;20034;-67
2022/10/07 09:50:31;;;;;;;5.07;1.00;;;;;;;16.19;58.51;101810.28;6039258;28;20045;-67
2022/10/07 09:53:32;;;;;;;5.65;1.60;;;;;;;16.09;59.85;101809.50;6020022;28;20471;-67
2022/10/07 09:56:42;;;;;;;7.22;1.27;;;;;;;16.18;58.44;101818.44;6001533;28;20035;-67
2022/10/07 09:59:39;;;;;;;5.07;1.10;;;;;;;15.97;58.53;101808.94;6001095;28;20114;-67
2022/10/07 10:02:34;;;;;;;5.85;1.30;;;;;;;15.90;59.33;101815.88;6000528;28;20035;-67
2022/10/07 10:05:35;;;;;;;5.40;1.33;;;;;;;16.11;59.66;101804.88;6000841;28;20041;-67
2022/10/07 10:08:40;;;;;;;4.03;0.88;;;;;;;15.91;60.28;101795.31;6000961;28;20266;-67
2022/10/07 10:11:36;;;;;;;5.57;1.67;;;;;;;16.18;58.37;101805.91;5999564;28;20034;-67
2022/10/07 10:14:53;;;;;;;8.90;1.23;;;;;;;16.36;58.67;101792.50;6001278;28;20359;-67
2022/10/07 10:17:49;;;;;;;4.40;1.38;;;;;;;16.58;57.78;101792.84;6000648;28;20333;-67
2022/10/07 10:20:45;;;;;;;5.80;1.27;;;;;;;16.65;57.47;101793.06;6000423;28;20109;-67
2022/10/07 10:23:49;;;;;;;3.78;0.90;;;;;;;16.95;56.33;101778.28;5999481;28;20035;-67
2022/10/07 10:26:55;;;;;;;7.43;1.92;;;;;;;17.08;54.96;101779.53;5999218;28;20038;-67
2022/10/07 10:30:20;;;;;;;4.18;1.10;;;;;;;17.06;54.56;101768.13;5999303;28;20038;-67
2022/10/07 10:33:36;;;;;;;6.30;1.73;;;;;;;16.90;54.83;101772.59;5998000;28;20438;-67
2022/10/07 10:36:33;;;;;;;5.28;1.00;;;;;;;17.12;55.15;101748.69;6000200;28;20038;-68
2022/10/07 10:39:56;;;;;;;6.50;1.10;;;;;;;17.14;53.93;101757.44;5999409;28;20050;-67
2022/10/07 10:43:15;;;;;;;5.65;1.15;;;;;;;17.11;54.62;101748.88;5999425;28;20042;-67
2022/10/07 10:46:17;;;;;;;6.05;1.40;;;;;;;17.13;54.90;101746.84;6007114;28;20030;-68
2022/10/07 10:49:24;;;;;;;5.65;1.02;;;;;;;17.42;54.97;101741.88;6023329;28;20034;-68
2022/10/07 10:53:06;;;;;;;11.07;1.58;;;;;;;17.44;54.33;101741.75;6021766;28;20065;-67
2022/10/07 10:56:20;;;;;;;4.47;1.27;;;;;;;17.25;54.32;101729.47;6023488;28;20043;-67
2022/10/07 10:59:47;;;;;;;9.45;1.30;;;;;;;17.56;54.42;101729.69;6008824;28;20043;-67
2022/10/07 11:02:59;;;;;;;8.98;1.60;;;;;;;17.46;54.10;101697.66;5999583;28;20337;-67
2022/10/07 11:05:55;;;;;;;5.85;1.20;;;;;;;17.61;53.03;101706.72;5998313;28;20041;-68
2022/10/07 11:08:53;;;;;;;7.00;1.25;;;;;;;17.34;54.38;101698.16;5999827;28;20074;-68
2022/10/07 11:11:49;;;;;;;6.10;1.23;;;;;;;17.39;54.96;101677.88;5998782;28;20109;-68
2022/10/07 11:14:49;;;;;;;10.18;1.73;;;;;;;17.67;53.89;101695.34;5999234;28;20035;-67
2022/10/07 11:17:48;;;;;;;5.70;1.42;;;;;;;17.67;55.41;101678.41;5998113;28;20082;-67
2022/10/07 11:20:47;;;;;;;7.38;1.70;;;;;;;17.95;54.55;101671.66;5997446;28;20450;-67
2022/10/07 11:24:01;;;;;;;6.20;1.10;;;;;;;17.98;53.97;101674.03;6007258;28;20033;-67
2022/10/07 11:27:13;;;;;;;5.43;1.23;;;;;;;17.86;51.53;101651.22;5997578;28;20094;-68
2022/10/07 11:30:17;;;;;;;3.72;1.15;;;;;;;17.89;51.77;101655.41;5998623;28;20034;-67
2022/10/07 11:33:57;;;;;;;4.05;1.00;;;;;;;17.87;50.60;101657.44;5998978;28;20039;-67
2022/10/07 11:37:02;;;;;;;9.73;2.00;;;;;;;17.73;51.88;101638.31;5988326;28;20046;-67
2022/10/07 11:39:57;;;;;;;6.53;1.42;;;;;;;17.83;51.17;101640.81;5999277;28;20041;-67
2022/10/07 11:42:54;;;;;;;7.23;1.10;;;;;;;17.70;50.98;101622.56;5998567;28;20030;-67
2022/10/07 11:45:52;;;;;;;8.18;1.30;;;;;;;17.67;52.52;101620.22;6004012;28;20073;-67
2022/10/07 11:48:50;;;;;;;4.82;1.10;;;;;;;17.62;52.33;101621.72;6001952;28;20378;-67
2022/10/07 11:52:23;;;;;;;7.63;1.35;;;;;;;17.59;52.13;101622.06;5998459;28;20030;-67
2022/10/07 11:55:32;;;;;;;3.97;0.98;;;;;;;17.76;51.54;101608.47;5949584;28;20038;-68
2022/10/07 11:58:30;;;;;;;7.20;1.30;;;;;;;17.77;50.77;101618.19;5997681;28;20031;-67
2022/10/07 12:01:27;;;;;;;3.65;1.05;;;;;;;17.65;50.90;101603.47;5997252;28;20039;-67
2022/10/07 12:04:34;;;;;;;11.10;1.70;;;;;;;17.65;50.85;101584.69;5998379;28;20390;-67
2022/10/07 12:07:58;;;;;;;;;;;;;;;17.75;51.62;101593.38;5999398;28;20085;-67
2022/10/07 12:11:09;;;;;;;6.50;1.30;;;;;;;17.66;50.99;101586.38;5993367;28;19909;-67
2022/10/07 12:14:27;;;;;;;5.53;1.00;;;;;;;17.52;51.25;101578.13;5998777;28;20155;-68
2022/10/07 12:17:27;;;;;;;5.32;1.00;;;;;;;17.51;50.69;101563.88;5997702;28;20038;-67
2022/10/07 12:20:44;;;;;;;5.80;1.52;;;;;;;17.78;50.54;101568.03;5996791;28;20035;-67
2022/10/07 12:23:40;;;;;;;5.22;0.93;;;;;;;18.10;50.49;101567.94;5998698;28;20425;-67
2022/10/07 12:26:35;;;;;;;4.93;1.20;;;;;;;18.33;50.18;101557.25;5998399;28;20062;-67
2022/10/07 12:29:57;;;;;;;6.03;1.03;;;;;;;18.35;50.43;101544.50;5998340;28;20058;-67
2022/10/07 12:32:59;;;;;;;2.08;0.73;;;;;;;18.44;50.74;101530.00;5997905;28;20054;-67
2022/10/07 12:35:55;;;;;;;4.90;1.10;;;;;;;18.32;48.58;101534.94;5998991;28;20035;-67
2022/10/07 12:38:57;;;;;;;3.83;0.80;;;;;;;18.07;49.64;101535.25;6000147;28;20038;-67
2022/10/07 12:41:52;;;;;;;5.97;1.10;;;;;;;18.09;50.26;101525.16;6001898;28;20031;-67
2022/10/07 12:44:51;;;;;;;7.22;0.90;;;;;;;18.20;49.24;101530.16;6002610;28;20065;-67
2022/10/07 12:47:47;;;;;;;7.60;0.93;;;;;;;18.25;49.03;101527.78;6008874;28;20030;-67
2022/10/07 12:50:45;;;;;;;4.05;0.98;;;;;;;18.12;50.29;101519.44;6024393;28;20457;-67
2022/10/07 12:53:40;;;;;;;5.78;1.33;;;;;;;18.33;49.05;101519.66;6024729;28;20026;-67
2022/10/07 12:56:36;;;;;;;5.30;0.90;;;;;;;18.44;49.57;101517.44;6024622;28;20073;-67
2022/10/07 12:59:57;;;;;;;3.67;1.00;;;;;;;18.41;48.05;101523.16;6009573;28;20069;-68
2022/10/07 13:03:07;;;;;;;6.63;1.20;;;;;;;18.49;49.27;101514.22;6016615;28;20750;-67
2022/10/07 13:06:36;;;;;;;3.53;0.85;;;;;;;18.36;48.44;101513.94;6001150;28;20027;-68
2022/10/07 13:10:09;;;;;;;6.18;1.13;;;;;;;18.14;49.57;101494.09;6002278;28;20045;-67
2022/10/07 13:13:06;;;;;;;5.05;1.30;;;;;;;18.05;50.12;101489.78;6001738;28;20031;-68
2022/10/07 13:16:13;;;;;;;4.95;1.05;;;;;;;18.00;50.65;101484.09;6000678;28;20039;-67
2022/10/07 13:19:40;;;;;;;7.85;1.40;;;;;;;18.21;50.01;101481.63;6001670;28;20027;-68
2022/10/07 13:22:38;;;;;;;2.60;0.73;;;;;;;18.20;48.46;101477.28;6001641;28;20047;-66
2022/10/07 13:25:33;;;;;;;5.75;1.10;;;;;;;18.21;50.08;101470.03;6001899;28;20038;-67
2022/10/07 13:28:37;;;;;;;6.35;1.48;;;;;;;18.13;49.16;101468.25;6002109;28;20034;-68
2022/10/07 13:31:34;;;;;;;4.20;1.00;;;;;;;18.14;50.34;101463.72;5999525;28;20034;-67
2022/10/07 13:34:30;;;;;;;5.75;1.08;;;;;;;18.36;48.67;101463.75;6001816;28;20034;-67
2022/10/07 13:37:30;;;;;;;3.70;1.30;;;;;;;18.38;48.98;101468.94;6001790;28;20041;-67
2022/10/07 13:40:32;;;;;;;8.15;1.30;;;;;;;18.31;50.10;101451.88;6001055;28;20102;-68
2022/10/07 13:43:29;;;;;;;4.75;1.20;;;;;;;18.14;49.48;101445.78;6001645;28;20090;-67
2022/10/07 13:46:26;;;;;;;3.70;0.88;;;;;;;18.03;50.42;101450.69;6009658;28;20651;-67
2022/10/07 13:49:25;;;;;;;5.60;1.27;;;;;;;17.84;50.39;101444.75;6000217;28;20070;-68
2022/10/07 13:52:23;;;;;;;8.45;1.02;;;;;;;17.82;50.61;101446.78;5998974;28;20034;-68
2022/10/07 13:55:24;;;;;;;4.35;1.13;;;;;;;17.73;51.86;101447.00;6001789;28;20486;-68
2022/10/07 13:58:19;;;;;;;6.38;1.08;;;;;;;17.52;52.37;101428.78;6001124;28;20030;-67
2022/10/07 14:01:15;;;;;;;6.63;1.17;;;;;;;17.52;51.98;101439.50;6000446;28;20058;-67
2022/10/07 14:04:18;;;;;;;5.10;1.30;;;;;;;17.61;51.83;101429.63;6001195;28;20520;-67
2022/10/07 14:07:16;;;;;;;6.95;1.20;;;;;;;17.69;51.05;101418.84;6000911;28;20277;-67